Chatt, Tennessee
Current Conditions -  °F | °C
As of 12:53 AM on Thursday 23 Oct 2014 (Local Time) from KCHA Reporting Station
Clear Clear  
Wind Chill: 50°   Ceiling: Unl
Heat Index: 50°   Visibility: 10mi
Dew Point: 40°   Wind: 13mph
Humidity: 68%   Direction: 20°NNE
Pressure: 30.19"   Gusts: NA
Location:  35.0457°N, 85.3094°W
Report Text: KCHA 230453Z AUTO 02011KT 10SM CLR 10/04 A3019 RMK AO2 SLP223 T01000044 401830067
Loading
Personal Weather Stations






























Interactive Weather Map
Tropical Storm Tracking
New forecast layout! Learn more

10-Day Weather Forecast

Advertisements
Track Severe Weather on mobile